KHEZ/HEZ METAR and TAF weather

Enter ICAO airport designator
Station Type Date Time Source
KHEZ METAR 2019/12/08 18:56 UTC NOAA

KHEZ 081856Z AUTO VRB05KT 10SM CLR 16/09 A3008 RMK AO2 SLP184 T01610089


Station Type Date Time Source
KHEZ Decoded METAR 2019/12/08 18:56 UTC NOAA

Natchez, Hardy-Anders Field Natchez-Adams County Airport, MS, United States (KHEZ) 31-37N 091-18W
Dec 08, 2019 - 01:56 PM EST / 2019.12.08 1856 UTC
Wind: Variable at 6 MPH (5 KT):0
Visibility: 10 mile(s):0
Sky conditions: clear
Temperature: 61.0 F (16.1 C)
Dew Point: 48.0 F (8.9 C)
Relative Humidity: 62%
Pressure (altimeter): 30.08 in. Hg (1018 hPa)
ob: KHEZ 081856Z AUTO VRB05KT 10SM CLR 16/09 A3008 RMK AO2 SLP184 T01610089
cycle: 19

Station Type Date Time Source
KHEZ TAF UTC NOAA

Error!

Example: see airport list